Latest Weather Observations for Lameroo AWS

IDS60801

Issued at 11:05 am CST Sunday 21 September 2014 (issued every 30 minutes, with the page automatically refreshed every 10 minutes)

About weather observations | Map of weather stations | Latest weather observations for SA | Other Formats
Station Details ID: 025562 Name: AUSTIN PLAINS Lat: -35.38 Lon: 140.54 Height: 110.08 m
Data from the previous 72 hours. | See also: Recent months at Lameroo AWS
Date/Time
CST
Temp
°C
App
Temp
°C
Dew
Point
Rel
Hum
%
Delta-T
°C
Wind Press
QNH
hPa
Press
MSL
hPa
Rain
since 9 am
mm
Dir
 
Spd
km/h
Gust
km/h
Spd
kts
Gust
kts
21/11:00am 17.8 14.6 3.3 38 6.7 E 9 15 5 8 1030.9 1031.0 0.0
21/10:30am 17.0 13.5 3.3 40 6.3 ENE 11 20 6 11 1031.1 1031.2 0.0
21/10:00am 15.9 12.1 3.7 44 5.6 NE 13 19 7 10 1031.5 1031.6 0.0
21/09:30am 15.2 10.8 4.6 49 4.9 ENE 17 22 9 12 1031.5 1031.6 0.0
21/09:00am 13.9 8.9 4.5 53 4.3 ENE 20 26 11 14 1031.7 1031.8 0.0
21/08:30am 12.9 8.2 5.1 59 3.6 ENE 19 24 10 13 1031.5 1031.6 0.0
21/08:00am 10.5 5.6 5.3 70 2.4 E 20 24 11 13 1031.3 1031.4 0.0
21/07:30am 8.1 3.2 5.2 82 1.3 E 20 26 11 14 1031.0 1031.1 0.0
21/07:00am 5.4 1.6 3.9 90 0.6 E 13 19 7 10 1030.9 1031.0 0.0
21/06:30am 3.5 -1.0 2.3 92 0.5 E 15 15 8 8 1030.4 1030.5 0.0
21/06:00am 3.9 -0.5 2.7 92 0.5 E 15 19 8 10 1030.2 1030.3 0.0
21/05:30am 3.9 -0.5 2.7 92 0.5 E 15 17 8 9 1029.8 1029.9 0.0
21/05:00am 4.2 -0.5 2.9 91 0.5 E 17 19 9 10 1029.4 1029.5 0.0
21/04:30am 4.4 -0.3 2.9 90 0.6 E 17 19 9 10 1028.9 1029.0 0.0
21/04:00am 5.1 0.1 3.4 89 0.7 ESE 19 20 10 11 1028.8 1028.9 0.0
21/03:30am 4.3 -0.1 2.7 89 0.6 E 15 19 8 10 1028.4 1028.5 0.0
21/03:00am 4.5 -0.3 2.5 87 0.8 ESE 17 17 9 9 1028.4 1028.5 0.0
21/02:30am 5.0 0.5 2.4 83 1.0 ESE 15 17 8 9 1028.5 1028.6 0.0
21/02:00am 6.0 1.3 3.0 81 1.3 ESE 17 20 9 11 1028.5 1028.6 0.0
21/01:30am 5.2 0.4 2.4 82 1.1 E 17 19 9 10 1028.6 1028.7 0.0
21/01:00am 4.5 -0.1 1.7 82 1.1 E 15 17 8 9 1028.8 1028.9 0.0
21/12:30am 6.1 1.6 2.2 76 1.6 E 15 17 8 9 1029.0 1029.1 0.0
21/12:00am 7.8 3.0 2.7 70 2.1 ESE 17 20 9 11 1029.1 1029.2 0.0
 
Date/Time
CST
Temp
°C
App
Temp
°C
Dew
Point
Rel
Hum
%
Delta-T
°C
Wind Press
QNH
hPa
Press
MSL
hPa
Rain
since 9 am
mm
Dir
 
Spd
km/h
Gust
km/h
Spd
kts
Gust
kts
20/11:30pm 8.4 3.3 3.1 69 2.2 SE 19 20 10 11 1029.2 1029.3 0.0
20/11:00pm 8.7 3.9 2.7 66 2.6 SE 17 19 9 10 1029.2 1029.3 0.0
20/10:30pm 9.3 4.5 2.6 63 2.8 SE 17 20 9 11 1029.2 1029.3 0.0
20/10:00pm 9.2 4.1 2.8 64 2.7 SSE 19 22 10 12 1029.1 1029.2 0.0
20/09:30pm 8.8 3.9 2.2 63 2.8 SSE 17 19 9 10 1029.2 1029.3 0.0
20/09:00pm 9.3 4.1 2.2 61 3.0 SSE 19 19 10 10 1028.9 1029.0 0.0
20/08:30pm 9.6 5.0 1.8 58 3.2 SE 15 19 8 10 1028.6 1028.7 0.0
20/08:00pm 8.7 3.4 1.6 61 2.9 SSE 19 19 10 10 1028.3 1028.4 0.0
20/07:30pm 10.6 5.7 1.7 54 3.7 SSE 17 19 9 10 1028.0 1028.1 0.0
20/07:00pm 11.9 7.3 1.5 49 4.4 SE 15 17 8 9 1027.7 1027.7 0.0
20/06:30pm 12.2 7.5 1.2 47 4.6 SSE 15 17 8 9 1027.4 1027.4 0.0
20/06:00pm 15.4 10.3 0.8 37 6.3 SSE 17 19 9 10 1026.9 1026.9 0.0
20/05:30pm 17.9 13.2 0.6 31 7.6 SSE 15 22 8 12 1026.5 1026.5 0.0
20/05:00pm 19.5 15.9 0.5 28 8.5 S 9 15 5 8 1026.0 1026.0 0.0
20/04:30pm 20.5 17.5 0.9 27 8.8 SSW 6 13 3 7 1025.9 1025.9 0.0
20/04:00pm 20.3 17.2 0.2 26 9.0 SW 6 11 3 6 1025.8 1025.8 0.0
20/03:30pm 20.4 18.1 0.3 26 9.0 S 2 7 1 4 1025.7 1025.7 0.0
20/03:00pm 20.4 16.4 0.8 27 8.8 S 11 26 6 14 1025.7 1025.7 0.0
20/02:30pm 19.6 16.2 -0.4 26 8.7 WNW 7 11 4 6 1025.8 1025.8 0.0
20/02:00pm 19.1 15.9 -0.3 27 8.5 N 6 11 3 6 1025.7 1025.7 0.0
20/01:30pm 19.2 15.6 0.3 28 8.3 SE 9 17 5 9 1026.0 1026.0 0.0
20/01:00pm 18.7 15.9 -0.7 27 8.4 N 4 11 2 6 1026.2 1026.2 0.0
20/12:30pm 18.4 14.3 0.1 29 8.0 E 11 20 6 11 1026.5 1026.5 0.0
20/12:00pm 17.9 14.7 0.6 31 7.6 E 7 15 4 8 1027.0 1027.0 0.0
20/11:30am 17.9 14.9 0.6 31 7.6 ENE 6 11 3 6 1027.4 1027.4 0.0
20/11:00am 17.2 13.4 2.0 36 6.9 E 11 20 6 11 1027.8 1027.8 0.0
20/10:30am 16.8 12.2 3.8 42 6.0 ENE 17 26 9 14 1028.1 1028.2 0.0
20/10:00am 15.9 11.1 4.9 48 5.2 ENE 19 22 10 12 1028.4 1028.5 0.0
20/09:30am 15.5 10.7 5.7 52 4.7 ENE 20 28 11 15 1028.4 1028.5 0.0
20/09:00am 13.9 7.9 5.5 57 3.9 ENE 26 30 14 16 1028.2 1028.3 0.0
20/08:30am 12.3 6.8 5.9 65 3.0 ENE 24 28 13 15 1028.1 1028.2 0.0
20/08:00am 10.5 5.8 5.9 73 2.1 E 20 24 11 13 1027.9 1028.0 0.0
20/07:30am 8.1 3.9 5.6 84 1.1 E 17 22 9 12 1027.7 1027.7 0.0
20/07:00am 5.5 1.4 4.2 91 0.6 E 15 19 8 10 1027.3 1027.3 0.0
20/06:30am 3.4 -1.1 2.4 93 0.4 E 15 17 8 9 1027.0 1027.0 0.0
20/06:00am 2.7 -2.2 1.7 93 0.4 E 17 17 9 9 1026.5 1026.5 0.0
20/05:30am 2.5 -2.2 1.2 91 0.5 E 15 19 8 10 1026.1 1026.1 0.0
20/05:00am 3.4 -1.5 2.2 92 0.5 E 17 19 9 10 1025.6 1025.6 0.0
20/04:30am 2.1 -2.2 0.8 91 0.5 E 13 17 7 9 1025.3 1025.3 0.0
20/04:00am 3.4 -1.2 1.4 87 0.8 E 15 17 8 9 1024.9 1024.9 0.0
20/03:30am 4.1 -1.2 1.6 84 1.0 E 19 20 10 11 1024.6 1024.6 0.0
20/03:00am 4.0 -1.0 1.4 83 1.0 ESE 17 19 9 10 1024.7 1024.7 0.0
20/02:30am 4.5 -0.5 1.4 80 1.2 ESE 17 19 9 10 1024.6 1024.6 0.0
20/02:00am 4.9 -0.4 1.6 79 1.3 ESE 19 20 10 11 1024.7 1024.7 0.0
20/01:30am 5.3 0.4 1.8 78 1.4 ESE 17 19 9 10 1024.9 1024.9 0.0
20/01:00am 5.1 0.5 1.4 77 1.5 ESE 15 17 8 9 1025.0 1025.0 0.0
20/12:30am 6.0 0.7 1.7 74 1.7 ESE 19 20 10 11 1024.9 1024.9 0.0
20/12:00am 5.7 0.4 1.6 75 1.6 ESE 19 20 10 11 1025.1 1025.1 0.0
 
Date/Time
CST
Temp
°C
App
Temp
°C
Dew
Point
Rel
Hum
%
Delta-T
°C
Wind Press
QNH
hPa
Press
MSL
hPa
Rain
since 9 am
mm
Dir
 
Spd
km/h
Gust
km/h
Spd
kts
Gust
kts
19/11:30pm 4.6 -0.4 1.1 78 1.4 ESE 17 17 9 9 1025.0 1025.0 0.0
19/11:00pm 4.6 -0.4 1.3 79 1.3 SE 17 17 9 9 1025.3 1025.3 0.0
19/10:30pm 4.6 -0.1 0.9 77 1.4 SE 15 17 8 9 1025.3 1025.3 0.0
19/10:00pm 5.0 -0.1 0.8 74 1.6 SE 17 19 9 10 1025.4 1025.4 0.0
19/09:30pm 5.7 1.3 0.3 68 2.1 SE 13 15 7 8 1025.5 1025.5 0.0
19/09:00pm 6.8 1.7 0.9 66 2.3 SE 17 17 9 9 1025.5 1025.5 0.0
19/08:30pm 7.2 2.4 0.4 62 2.7 SSE 15 15 8 8 1025.4 1025.4 0.0
19/08:00pm 10.0 6.1 0.9 53 3.8 SSE 11 13 6 7 1025.2 1025.2 0.0
19/07:30pm 7.7 3.2 0.0 58 3.0 SE 13 19 7 10 1025.0 1025.0 0.0
19/07:00pm 12.5 10.4 -1.1 39 5.5 CALM 0 0 0 0 1024.5 1024.5 0.0
19/06:30pm 14.1 11.9 -1.5 34 6.3 CALM 0 0 0 0 1024.3 1024.3 0.0
19/06:00pm 14.9 12.9 0.0 36 6.3 CALM 0 0 0 0 1024.2 1024.2 0.0
19/05:30pm 16.5 14.4 -1.1 30 7.4 CALM 0 0 0 0 1024.0 1024.0 0.0
19/05:00pm 17.8 15.7 -0.5 29 7.9 CALM 0 0 0 0 1023.9 1023.9 0.0
19/04:30pm 17.1 13.9 -0.6 30 7.5 S 6 9 3 5 1023.8 1023.8 0.0
19/04:00pm 16.9 13.6 -1.2 29 7.6 ESE 6 9 3 5 1023.7 1023.7 0.0
19/03:30pm 17.4 14.9 -1.3 28 7.9 N 2 7 1 4 1023.7 1023.7 0.0
19/03:00pm 17.0 13.2 -0.7 30 7.5 SSE 9 15 5 8 1023.7 1023.7 0.0
19/02:30pm 17.2 13.1 -0.5 30 7.6 S 11 19 6 10 1024.0 1024.0 0.0
19/02:00pm 17.0 13.3 -0.2 31 7.4 SE 9 13 5 7 1024.2 1024.2 0.0
19/01:30pm 16.8 13.2 0.5 33 7.1 E 9 17 5 9 1024.5 1024.5 0.0
19/01:00pm 17.0 14.3 0.2 32 7.3 W 4 11 2 6 1024.8 1024.8 0.0
19/12:30pm 14.8 11.5 -0.1 36 6.3 ENE 7 13 4 7 1025.2 1025.2 0.0
19/12:00pm 15.7 12.6 1.4 38 6.3 SSW 7 11 4 6 1025.6 1025.6 0.0
19/11:30am 14.3 11.4 1.2 41 5.6 SSE 6 9 3 5 1026.0 1026.0 0.0
19/11:00am 14.8 11.8 1.7 41 5.8 E 7 11 4 6 1026.3 1026.3 0.0
19/10:30am 14.2 10.8 2.1 44 5.3 ENE 9 17 5 9 1026.5 1026.5 0.0
19/10:00am 14.2 10.3 3.4 48 4.9 E 13 20 7 11 1026.7 1026.7 0.0
19/09:30am 13.1 8.7 2.9 50 4.5 ENE 15 22 8 12 1026.9 1026.9 0.0
19/09:00am 12.0 6.8 2.7 53 4.0 ENE 19 22 10 12 1026.9 1026.9 0.0
19/08:30am 10.9 6.4 4.4 64 2.9 ENE 17 20 9 11 1026.9 1026.9 0.0
19/08:00am 8.4 4.8 5.0 79 1.5 E 13 19 7 10 1026.8 1026.8 0.0
19/07:30am 5.2 2.6 4.2 93 0.4 E 7 15 4 8 1026.6 1026.6 0.0
19/07:00am 2.7 -0.2 2.7 100 0.0 E 7 9 4 5 1026.4 1026.4 0.0
19/06:30am 0.4 -4.0 0.4 100 0.0 E 13 13 7 7 1026.1 1026.1 0.0
19/06:00am 0.9 -3.0 0.9 100 0.0 E 11 13 6 7 1025.8 1025.8 0.0
19/05:30am 1.8 -1.7 1.5 98 0.1 E 9 11 5 6 1025.6 1025.6 0.0
19/05:00am 2.4 -2.1 2.4 100 0.0 ESE 15 15 8 8 1025.3 1025.3 0.0
19/04:30am 2.0 -2.5 2.0 100 0.0 SE 15 17 8 9 1025.0 1025.0 0.0
19/04:00am 2.2 -2.3 2.2 100 0.0 SE 15 17 8 9 1024.9 1024.9 0.0
19/03:30am 1.7 -3.0 1.0 95 0.3 SE 15 15 8 8 1024.9 1024.9 0.0
19/03:00am 2.2 -1.3 1.2 93 0.4 SE 9 11 5 6 1025.1 1025.1 0.0
19/02:30am 2.9 -0.5 1.7 92 0.5 SE 9 11 5 6 1025.3 1025.3 0.0
19/02:00am 3.3 -0.8 2.3 93 0.4 SE 13 15 7 8 1025.4 1025.4 0.0
19/01:30am 3.3 -1.2 2.1 92 0.5 SE 15 15 8 8 1025.4 1025.4 0.0
19/01:00am 3.7 -0.8 2.4 91 0.5 SE 15 17 8 9 1025.4 1025.4 0.0
19/12:30am 3.8 -1.1 2.3 90 0.6 SSE 17 19 9 10 1025.4 1025.4 0.0
19/12:00am 3.9 -0.9 2.4 90 0.6 SSE 17 19 9 10 1025.5 1025.5 0.0
 
Date/Time
CST
Temp
°C
App
Temp
°C
Dew
Point
Rel
Hum
%
Delta-T
°C
Wind Press
QNH
hPa
Press
MSL
hPa
Rain
since 9 am
mm
Dir
 
Spd
km/h
Gust
km/h
Spd
kts
Gust
kts
18/11:30pm 4.7 0.4 3.0 89 0.7 SSE 15 17 8 9 1025.5 1025.5 0.0
18/11:00pm 5.4 1.5 3.4 87 0.8 S 13 17 7 9 1025.6 1025.6 0.0
18/10:30pm 5.8 1.2 3.6 86 0.9 S 17 17 9 9 1025.8 1025.8 0.0
18/10:00pm 6.5 2.3 3.8 83 1.2 S 15 17 8 9 1025.9 1025.9 0.0
18/09:30pm 6.7 2.9 3.9 82 1.2 S 13 15 7 8 1026.1 1026.1 0.0
18/09:00pm 7.0 2.8 3.6 79 1.4 S 15 17 8 9 1026.2 1026.2 0.0
18/08:30pm 7.2 2.9 3.1 75 1.7 S 15 17 8 9 1025.9 1025.9 0.0
18/08:00pm 8.3 3.6 3.4 71 2.1 S 17 17 9 9 1025.6 1025.6 0.0
18/07:30pm 9.1 4.8 3.3 67 2.5 S 15 17 8 9 1025.2 1025.2 0.0
18/07:00pm 10.0 6.1 3.5 64 2.9 S 13 15 7 8 1025.0 1025.0 0.0
18/06:30pm 11.4 7.9 3.7 59 3.4 S 11 13 6 7 1025.0 1025.0 0.0
18/06:00pm 12.6 9.4 3.0 52 4.2 S 9 13 5 7 1024.7 1024.7 0.0
18/05:30pm 13.7 9.0 3.2 49 4.7 S 17 24 9 13 1024.4 1024.4 0.0
18/05:00pm 14.4 11.5 2.6 45 5.3 S 7 15 4 8 1024.1 1024.1 0.0
18/04:30pm 14.9 11.6 2.4 43 5.6 S 9 13 5 7 1023.9 1023.9 0.0
18/04:00pm 14.8 10.0 2.4 43 5.5 S 17 22 9 12 1023.8 1023.8 0.0
18/03:30pm 15.1 11.7 1.6 40 5.9 S 9 13 5 7 1023.9 1023.9 0.0
18/03:00pm 14.8 10.7 2.0 42 5.6 S 13 19 7 10 1024.0 1024.0 0.0
18/02:30pm 15.1 11.0 2.3 42 5.7 S 13 17 7 9 1024.0 1024.0 0.0
18/02:00pm 14.7 11.5 3.2 46 5.2 S 9 19 5 10 1024.1 1024.1 0.0
18/01:30pm 15.0 12.8 3.2 45 5.3 S 4 11 2 6 1024.3 1024.3 0.0
18/01:00pm 14.3 11.6 3.7 49 4.8 SSE 7 15 4 8 1024.7 1024.7 0.0
18/12:30pm 13.4 9.2 4.0 53 4.3 S 15 20 8 11 1025.2 1025.2 0.0
18/12:00pm 13.2 8.4 4.4 55 4.0 S 19 32 10 17 1025.4 1025.4 0.0
18/11:30am 13.5 10.4 3.8 52 4.4 SSW 9 19 5 10 1025.6 1025.6 0.0

Other Formats:

Comma delimited format used in spreadsheet applications
http://www.bom.gov.au/fwo/IDS60801/IDS60801.94690.axf

JavaScript Object Notation format (JSON) in row-major order
http://www.bom.gov.au/fwo/IDS60801/IDS60801.94690.json